TimeMDT,TemperatureF,Dew PointF,Humidity,Sea Level PressureIn,VisibilityMPH,Wind Direction,Wind SpeedMPH,Gust SpeedMPH,PrecipitationIn,Events,Conditions,WindDirDegrees,DateUTC
12:53 AM,27.0,18.0,69,30.52,10.0,Calm,Calm,-,N/A,,Clear,0,2012-10-06 06:53:00
1:53 AM,26.1,18.0,71,30.53,10.0,Calm,Calm,-,N/A,,Clear,0,2012-10-06 07:53:00
2:53 AM,25.0,17.1,72,30.53,10.0,WNW,3.5,-,N/A,,Clear,300,2012-10-06 08:53:00
3:53 AM,21.0,16.0,81,30.54,10.0,Calm,Calm,-,N/A,,Clear,0,2012-10-06 09:53:00
4:53 AM,21.0,15.1,78,30.53,10.0,Calm,Calm,-,N/A,,Clear,0,2012-10-06 10:53:00
5:53 AM,21.9,16.0,78,30.53,10.0,Calm,Calm,-,N/A,,Clear,0,2012-10-06 11:53:00
6:53 AM,19.0,15.1,85,30.53,10.0,NNE,3.5,-,N/A,,Clear,30,2012-10-06 12:53:00
7:53 AM,19.4,15.8,86,30.37,10.0,Calm,Calm,-,N/A,,Clear,0,2012-10-06 13:53:00
8:53 AM,26.1,19.0,75,30.54,10.0,Calm,Calm,-,N/A,,Clear,0,2012-10-06 14:53:00
9:53 AM,28.0,19.9,72,30.53,10.0,Calm,Calm,-,N/A,,Clear,0,2012-10-06 15:53:00
10:53 AM,34.0,19.9,56,30.51,10.0,Variable,3.5,-,N/A,,Clear,0,2012-10-06 16:53:00
11:53 AM,39.0,19.9,46,30.48,10.0,East,4.6,-,N/A,,Clear,80,2012-10-06 17:53:00
12:53 PM,43.0,16.0,34,30.45,10.0,Variable,4.6,-,N/A,,Mostly Cloudy,0,2012-10-06 18:53:00
1:53 PM,44.1,16.0,32,30.43,10.0,Variable,4.6,-,N/A,,Mostly Cloudy,0,2012-10-06 19:53:00
2:53 PM,46.0,16.0,30,30.39,10.0,Calm,Calm,-,N/A,,Overcast,0,2012-10-06 20:53:00
3:53 PM,48.0,16.0,28,30.39,10.0,ENE,3.5,-,N/A,,Overcast,70,2012-10-06 21:53:00
4:53 PM,48.0,18.0,30,30.38,10.0,NNE,5.8,-,N/A,,Overcast,30,2012-10-06 22:53:00
5:53 PM,46.9,17.1,30,30.38,10.0,NNE,4.6,-,N/A,,Overcast,20,2012-10-06 23:53:00
6:53 PM,46.0,21.0,37,30.38,10.0,Calm,Calm,-,N/A,,Overcast,0,2012-10-07 00:53:00
7:53 PM,46.0,19.9,35,30.37,10.0,Calm,Calm,-,N/A,,Overcast,0,2012-10-07 01:53:00
8:53 PM,45.0,19.9,37,30.35,10.0,Calm,Calm,-,N/A,,Overcast,0,2012-10-07 02:53:00
9:53 PM,42.1,27.0,55,30.36,10.0,Calm,Calm,-,N/A,,Overcast,0,2012-10-07 03:53:00
10:53 PM,41.0,27.0,57,30.33,10.0,Calm,Calm,-,N/A,,Overcast,0,2012-10-07 04:53:00
11:53 PM,41.0,27.0,57,30.32,10.0,Calm,Calm,-,N/A,,Overcast,0,2012-10-07 05:53:00